sensor_id;sensor_type;location;lat;lon;timestamp;P1;durP1;ratioP1;P2;durP2;ratioP2
18322;SDS011;9287;49.456;11.064;2023-02-02T00:01:22;7.50;;;1.57;;
18322;SDS011;9287;49.456;11.064;2023-02-02T00:03:50;7.53;;;1.67;;
18322;SDS011;9287;49.456;11.064;2023-02-02T00:06:19;6.43;;;1.53;;
18322;SDS011;9287;49.456;11.064;2023-02-02T00:08:48;7.77;;;1.40;;
18322;SDS011;9287;49.456;11.064;2023-02-02T00:11:17;8.33;;;1.60;;
18322;SDS011;9287;49.456;11.064;2023-02-02T00:13:45;5.37;;;1.43;;
18322;SDS011;9287;49.456;11.064;2023-02-02T00:16:21;8.90;;;1.97;;
18322;SDS011;9287;49.456;11.064;2023-02-02T00:19:02;5.53;;;1.73;;
18322;SDS011;9287;49.456;11.064;2023-02-02T00:21:31;8.43;;;1.80;;
18322;SDS011;9287;49.456;11.064;2023-02-02T00:23:59;10.10;;;1.77;;
18322;SDS011;9287;49.456;11.064;2023-02-02T00:26:27;9.73;;;2.43;;
18322;SDS011;9287;49.456;11.064;2023-02-02T00:28:55;7.60;;;1.50;;
18322;SDS011;9287;49.456;11.064;2023-02-02T00:31:24;8.07;;;1.97;;
18322;SDS011;9287;49.456;11.064;2023-02-02T00:33:52;5.03;;;1.63;;
18322;SDS011;9287;49.456;11.064;2023-02-02T00:36:20;7.23;;;1.90;;
18322;SDS011;9287;49.456;11.064;2023-02-02T00:38:48;8.23;;;1.90;;
18322;SDS011;9287;49.456;11.064;2023-02-02T00:41:18;6.03;;;1.27;;
18322;SDS011;9287;49.456;11.064;2023-02-02T00:43:46;6.23;;;1.40;;
18322;SDS011;9287;49.456;11.064;2023-02-02T00:46:38;6.87;;;1.60;;
18322;SDS011;9287;49.456;11.064;2023-02-02T00:49:06;11.30;;;1.80;;
18322;SDS011;9287;49.456;11.064;2023-02-02T00:51:34;9.77;;;1.80;;
18322;SDS011;9287;49.456;11.064;2023-02-02T00:54:01;8.00;;;1.83;;
18322;SDS011;9287;49.456;11.064;2023-02-02T00:56:30;9.23;;;1.73;;
18322;SDS011;9287;49.456;11.064;2023-02-02T00:58:58;7.93;;;1.60;;
18322;SDS011;9287;49.456;11.064;2023-02-02T01:01:26;3.90;;;1.33;;
18322;SDS011;9287;49.456;11.064;2023-02-02T01:03:55;6.83;;;1.77;;
18322;SDS011;9287;49.456;11.064;2023-02-02T01:06:24;4.70;;;1.40;;
18322;SDS011;9287;49.456;11.064;2023-02-02T01:08:52;6.37;;;1.17;;
18322;SDS011;9287;49.456;11.064;2023-02-02T01:11:20;9.40;;;1.50;;
18322;SDS011;9287;49.456;11.064;2023-02-02T01:13:47;5.90;;;1.70;;
18322;SDS011;9287;49.456;11.064;2023-02-02T01:16:15;4.33;;;1.10;;
18322;SDS011;9287;49.456;11.064;2023-02-02T01:18:43;1.13;;;0.50;;
18322;SDS011;9287;49.456;11.064;2023-02-02T01:21:12;1.60;;;0.30;;
18322;SDS011;9287;49.456;11.064;2023-02-02T01:23:40;0.20;;;0.20;;
18322;SDS011;9287;49.456;11.064;2023-02-02T01:26:08;0.17;;;0.17;;
18322;SDS011;9287;49.456;11.064;2023-02-02T01:28:37;0.43;;;0.30;;
18322;SDS011;9287;49.456;11.064;2023-02-02T01:31:06;1.33;;;0.30;;
18322;SDS011;9287;49.456;11.064;2023-02-02T01:33:36;0.60;;;0.20;;
18322;SDS011;9287;49.456;11.064;2023-02-02T01:36:05;0.60;;;0.30;;
18322;SDS011;9287;49.456;11.064;2023-02-02T01:38:36;1.07;;;0.30;;
18322;SDS011;9287;49.456;11.064;2023-02-02T01:41:03;1.37;;;0.60;;
18322;SDS011;9287;49.456;11.064;2023-02-02T01:46:18;0.80;;;0.30;;
18322;SDS011;9287;49.456;11.064;2023-02-02T01:48:49;0.20;;;0.20;;
18322;SDS011;9287;49.456;11.064;2023-02-02T01:51:22;0.20;;;0.20;;
18322;SDS011;9287;49.456;11.064;2023-02-02T01:53:56;0.20;;;0.20;;
18322;SDS011;9287;49.456;11.064;2023-02-02T01:56:27;0.20;;;0.20;;
18322;SDS011;9287;49.456;11.064;2023-02-02T01:58:58;0.13;;;0.13;;
18322;SDS011;9287;49.456;11.064;2023-02-02T02:01:27;0.20;;;0.20;;
18322;SDS011;9287;49.456;11.064;2023-02-02T02:03:55;0.20;;;0.20;;
18322;SDS011;9287;49.456;11.064;2023-02-02T02:06:23;0.17;;;0.17;;
18322;SDS011;9287;49.456;11.064;2023-02-02T02:08:53;0.23;;;0.23;;
18322;SDS011;9287;49.456;11.064;2023-02-02T02:11:25;0.40;;;0.20;;
18322;SDS011;9287;49.456;11.064;2023-02-02T02:13:53;0.20;;;0.20;;
18322;SDS011;9287;49.456;11.064;2023-02-02T02:16:44;0.97;;;0.27;;
18322;SDS011;9287;49.456;11.064;2023-02-02T02:22:39;0.30;;;0.30;;
18322;SDS011;9287;49.456;11.064;2023-02-02T02:25:45;0.17;;;0.17;;
18322;SDS011;9287;49.456;11.064;2023-02-02T02:28:55;0.10;;;0.10;;
18322;SDS011;9287;49.456;11.064;2023-02-02T02:31:58;0.30;;;0.20;;
18322;SDS011;9287;49.456;11.064;2023-02-02T02:34:40;0.20;;;0.20;;
18322;SDS011;9287;49.456;11.064;2023-02-02T02:37:18;0.30;;;0.20;;
18322;SDS011;9287;49.456;11.064;2023-02-02T02:39:54;0.23;;;0.20;;
18322;SDS011;9287;49.456;11.064;2023-02-02T02:42:29;0.20;;;0.20;;
18322;SDS011;9287;49.456;11.064;2023-02-02T02:45:00;0.27;;;0.20;;
18322;SDS011;9287;49.456;11.064;2023-02-02T02:47:31;0.87;;;0.30;;
18322;SDS011;9287;49.456;11.064;2023-02-02T02:50:01;0.20;;;0.20;;
18322;SDS011;9287;49.456;11.064;2023-02-02T02:52:28;0.27;;;0.27;;
18322;SDS011;9287;49.456;11.064;2023-02-02T02:54:56;0.30;;;0.30;;
18322;SDS011;9287;49.456;11.064;2023-02-02T02:57:36;0.20;;;0.20;;
18322;SDS011;9287;49.456;11.064;2023-02-02T03:03:04;0.30;;;0.30;;
18322;SDS011;9287;49.456;11.064;2023-02-02T03:05:40;0.20;;;0.20;;
18322;SDS011;9287;49.456;11.064;2023-02-02T03:08:19;0.23;;;0.23;;
18322;SDS011;9287;49.456;11.064;2023-02-02T03:10:53;0.20;;;0.20;;
18322;SDS011;9287;49.456;11.064;2023-02-02T03:13:22;0.20;;;0.20;;
18322;SDS011;9287;49.456;11.064;2023-02-02T03:15:52;0.17;;;0.17;;
18322;SDS011;9287;49.456;11.064;2023-02-02T03:18:23;0.23;;;0.20;;
18322;SDS011;9287;49.456;11.064;2023-02-02T03:20:54;0.20;;;0.20;;
18322;SDS011;9287;49.456;11.064;2023-02-02T03:23:22;0.30;;;0.30;;
18322;SDS011;9287;49.456;11.064;2023-02-02T03:25:50;0.20;;;0.20;;
18322;SDS011;9287;49.456;11.064;2023-02-02T03:28:18;0.23;;;0.20;;
18322;SDS011;9287;49.456;11.064;2023-02-02T03:30:48;0.20;;;0.20;;
18322;SDS011;9287;49.456;11.064;2023-02-02T03:33:16;0.20;;;0.20;;
18322;SDS011;9287;49.456;11.064;2023-02-02T03:35:46;0.20;;;0.20;;
18322;SDS011;9287;49.456;11.064;2023-02-02T03:38:13;0.20;;;0.20;;
18322;SDS011;9287;49.456;11.064;2023-02-02T03:40:41;0.37;;;0.20;;
18322;SDS011;9287;49.456;11.064;2023-02-02T03:43:09;0.37;;;0.30;;
18322;SDS011;9287;49.456;11.064;2023-02-02T03:45:36;0.20;;;0.20;;
18322;SDS011;9287;49.456;11.064;2023-02-02T03:48:06;0.90;;;0.20;;
18322;SDS011;9287;49.456;11.064;2023-02-02T03:50:33;0.20;;;0.20;;
18322;SDS011;9287;49.456;11.064;2023-02-02T03:53:02;0.30;;;0.20;;
18322;SDS011;9287;49.456;11.064;2023-02-02T03:55:30;0.20;;;0.20;;
18322;SDS011;9287;49.456;11.064;2023-02-02T03:57:57;0.57;;;0.20;;
18322;SDS011;9287;49.456;11.064;2023-02-02T04:00:25;1.20;;;0.20;;
18322;SDS011;9287;49.456;11.064;2023-02-02T04:02:53;0.60;;;0.20;;
18322;SDS011;9287;49.456;11.064;2023-02-02T04:05:21;0.73;;;0.20;;
18322;SDS011;9287;49.456;11.064;2023-02-02T04:07:49;0.93;;;0.10;;
18322;SDS011;9287;49.456;11.064;2023-02-02T04:10:18;0.20;;;0.20;;
18322;SDS011;9287;49.456;11.064;2023-02-02T04:12:46;0.10;;;0.10;;
18322;SDS011;9287;49.456;11.064;2023-02-02T04:15:13;0.20;;;0.20;;
18322;SDS011;9287;49.456;11.064;2023-02-02T04:17:41;0.67;;;0.20;;
18322;SDS011;9287;49.456;11.064;2023-02-02T04:20:10;0.10;;;0.10;;
18322;SDS011;9287;49.456;11.064;2023-02-02T04:22:38;0.10;;;0.10;;
18322;SDS011;9287;49.456;11.064;2023-02-02T04:25:06;0.20;;;0.20;;
18322;SDS011;9287;49.456;11.064;2023-02-02T04:27:35;0.20;;;0.20;;
18322;SDS011;9287;49.456;11.064;2023-02-02T04:30:03;0.67;;;0.20;;
18322;SDS011;9287;49.456;11.064;2023-02-02T04:32:31;0.10;;;0.10;;
18322;SDS011;9287;49.456;11.064;2023-02-02T04:34:59;0.20;;;0.20;;
18322;SDS011;9287;49.456;11.064;2023-02-02T04:37:29;0.20;;;0.20;;
18322;SDS011;9287;49.456;11.064;2023-02-02T04:39:57;0.33;;;0.20;;
18322;SDS011;9287;49.456;11.064;2023-02-02T04:42:25;0.23;;;0.20;;
18322;SDS011;9287;49.456;11.064;2023-02-02T04:44:54;0.30;;;0.30;;
18322;SDS011;9287;49.456;11.064;2023-02-02T04:47:21;0.30;;;0.30;;
18322;SDS011;9287;49.456;11.064;2023-02-02T04:49:49;0.30;;;0.30;;
18322;SDS011;9287;49.456;11.064;2023-02-02T04:52:17;0.40;;;0.37;;
18322;SDS011;9287;49.456;11.064;2023-02-02T04:54:44;0.50;;;0.50;;
18322;SDS011;9287;49.456;11.064;2023-02-02T04:57:12;1.23;;;0.60;;
18322;SDS011;9287;49.456;11.064;2023-02-02T04:59:40;0.60;;;0.60;;
18322;SDS011;9287;49.456;11.064;2023-02-02T05:02:09;2.17;;;0.57;;
18322;SDS011;9287;49.456;11.064;2023-02-02T05:04:36;1.73;;;0.67;;
18322;SDS011;9287;49.456;11.064;2023-02-02T05:07:04;1.77;;;0.70;;
18322;SDS011;9287;49.456;11.064;2023-02-02T05:09:32;0.73;;;0.73;;
18322;SDS011;9287;49.456;11.064;2023-02-02T05:12:00;0.70;;;0.70;;
18322;SDS011;9287;49.456;11.064;2023-02-02T05:14:27;1.17;;;0.90;;
18322;SDS011;9287;49.456;11.064;2023-02-02T05:16:55;2.70;;;0.80;;
18322;SDS011;9287;49.456;11.064;2023-02-02T05:19:24;1.73;;;0.70;;
18322;SDS011;9287;49.456;11.064;2023-02-02T05:21:52;1.00;;;0.90;;
18322;SDS011;9287;49.456;11.064;2023-02-02T05:24:19;2.53;;;0.73;;
18322;SDS011;9287;49.456;11.064;2023-02-02T05:26:47;0.80;;;0.70;;
18322;SDS011;9287;49.456;11.064;2023-02-02T05:29:15;1.43;;;1.00;;
18322;SDS011;9287;49.456;11.064;2023-02-02T05:31:42;2.93;;;1.20;;
18322;SDS011;9287;49.456;11.064;2023-02-02T05:34:10;1.73;;;1.53;;
18322;SDS011;9287;49.456;11.064;2023-02-02T05:36:40;2.80;;;1.60;;
18322;SDS011;9287;49.456;11.064;2023-02-02T05:39:08;2.90;;;1.43;;
18322;SDS011;9287;49.456;11.064;2023-02-02T05:41:36;1.10;;;1.00;;
18322;SDS011;9287;49.456;11.064;2023-02-02T05:44:04;1.07;;;0.93;;
18322;SDS011;9287;49.456;11.064;2023-02-02T05:46:32;1.50;;;0.90;;
18322;SDS011;9287;49.456;11.064;2023-02-02T05:48:59;1.10;;;1.00;;
18322;SDS011;9287;49.456;11.064;2023-02-02T05:51:30;0.93;;;0.80;;
18322;SDS011;9287;49.456;11.064;2023-02-02T05:54:04;1.07;;;0.60;;
18322;SDS011;9287;49.456;11.064;2023-02-02T05:56:32;2.67;;;0.70;;
18322;SDS011;9287;49.456;11.064;2023-02-02T05:58:59;1.00;;;0.70;;
18322;SDS011;9287;49.456;11.064;2023-02-02T06:01:30;1.73;;;0.50;;
18322;SDS011;9287;49.456;11.064;2023-02-02T06:03:58;0.90;;;0.40;;
18322;SDS011;9287;49.456;11.064;2023-02-02T06:06:25;0.43;;;0.43;;
18322;SDS011;9287;49.456;11.064;2023-02-02T06:08:53;0.47;;;0.47;;
18322;SDS011;9287;49.456;11.064;2023-02-02T06:11:22;0.60;;;0.60;;
18322;SDS011;9287;49.456;11.064;2023-02-02T06:13:50;1.03;;;0.53;;
18322;SDS011;9287;49.456;11.064;2023-02-02T06:16:17;0.57;;;0.50;;
18322;SDS011;9287;49.456;11.064;2023-02-02T06:18:46;0.90;;;0.50;;
18322;SDS011;9287;49.456;11.064;2023-02-02T06:21:14;0.70;;;0.70;;
18322;SDS011;9287;49.456;11.064;2023-02-02T06:23:42;0.60;;;0.60;;
18322;SDS011;9287;49.456;11.064;2023-02-02T06:26:11;0.50;;;0.50;;
18322;SDS011;9287;49.456;11.064;2023-02-02T06:28:40;0.87;;;0.73;;
18322;SDS011;9287;49.456;11.064;2023-02-02T06:31:09;1.67;;;0.70;;
18322;SDS011;9287;49.456;11.064;2023-02-02T06:33:37;0.80;;;0.60;;
18322;SDS011;9287;49.456;11.064;2023-02-02T06:36:05;1.00;;;0.87;;
18322;SDS011;9287;49.456;11.064;2023-02-02T06:38:34;0.90;;;0.70;;
18322;SDS011;9287;49.456;11.064;2023-02-02T06:41:01;1.10;;;0.70;;
18322;SDS011;9287;49.456;11.064;2023-02-02T06:43:30;0.90;;;0.70;;
18322;SDS011;9287;49.456;11.064;2023-02-02T06:45:59;0.60;;;0.60;;
18322;SDS011;9287;49.456;11.064;2023-02-02T06:48:27;0.50;;;0.50;;
18322;SDS011;9287;49.456;11.064;2023-02-02T06:50:56;2.17;;;0.50;;
18322;SDS011;9287;49.456;11.064;2023-02-02T06:53:24;0.60;;;0.60;;
18322;SDS011;9287;49.456;11.064;2023-02-02T06:55:52;1.73;;;0.70;;
18322;SDS011;9287;49.456;11.064;2023-02-02T06:58:20;1.73;;;0.93;;
18322;SDS011;9287;49.456;11.064;2023-02-02T07:00:48;1.10;;;1.00;;
18322;SDS011;9287;49.456;11.064;2023-02-02T07:03:18;1.20;;;1.10;;
18322;SDS011;9287;49.456;11.064;2023-02-02T07:05:47;1.50;;;0.80;;
18322;SDS011;9287;49.456;11.064;2023-02-02T07:08:15;1.20;;;1.10;;
18322;SDS011;9287;49.456;11.064;2023-02-02T07:10:43;1.00;;;1.00;;
18322;SDS011;9287;49.456;11.064;2023-02-02T07:13:31;3.07;;;1.20;;
18322;SDS011;9287;49.456;11.064;2023-02-02T07:15:58;2.00;;;1.00;;
18322;SDS011;9287;49.456;11.064;2023-02-02T07:18:27;1.57;;;1.20;;
18322;SDS011;9287;49.456;11.064;2023-02-02T07:20:57;1.30;;;1.20;;
18322;SDS011;9287;49.456;11.064;2023-02-02T07:23:25;1.30;;;1.20;;
18322;SDS011;9287;49.456;11.064;2023-02-02T07:26:00;1.37;;;1.27;;
18322;SDS011;9287;49.456;11.064;2023-02-02T07:28:29;1.50;;;1.20;;
18322;SDS011;9287;49.456;11.064;2023-02-02T07:30:57;1.63;;;1.50;;
18322;SDS011;9287;49.456;11.064;2023-02-02T07:33:25;2.30;;;1.10;;
18322;SDS011;9287;49.456;11.064;2023-02-02T07:35:54;1.60;;;1.20;;
18322;SDS011;9287;49.456;11.064;2023-02-02T07:38:22;1.23;;;1.13;;
18322;SDS011;9287;49.456;11.064;2023-02-02T07:40:50;1.40;;;1.30;;
18322;SDS011;9287;49.456;11.064;2023-02-02T07:43:18;1.47;;;1.13;;
18322;SDS011;9287;49.456;11.064;2023-02-02T07:45:46;1.60;;;0.90;;
18322;SDS011;9287;49.456;11.064;2023-02-02T07:48:14;1.13;;;1.03;;
18322;SDS011;9287;49.456;11.064;2023-02-02T07:50:41;1.47;;;1.00;;
18322;SDS011;9287;49.456;11.064;2023-02-02T07:53:10;0.80;;;0.80;;
18322;SDS011;9287;49.456;11.064;2023-02-02T07:55:38;0.80;;;0.80;;
18322;SDS011;9287;49.456;11.064;2023-02-02T07:58:06;1.00;;;0.90;;
18322;SDS011;9287;49.456;11.064;2023-02-02T08:00:35;0.80;;;0.80;;
18322;SDS011;9287;49.456;11.064;2023-02-02T08:03:03;1.60;;;1.23;;
18322;SDS011;9287;49.456;11.064;2023-02-02T08:05:30;2.73;;;1.00;;
18322;SDS011;9287;49.456;11.064;2023-02-02T08:07:59;1.87;;;0.80;;
18322;SDS011;9287;49.456;11.064;2023-02-02T08:10:28;1.10;;;0.70;;
18322;SDS011;9287;49.456;11.064;2023-02-02T08:12:56;0.70;;;0.70;;
18322;SDS011;9287;49.456;11.064;2023-02-02T08:15:24;1.50;;;0.60;;
18322;SDS011;9287;49.456;11.064;2023-02-02T08:17:52;1.07;;;0.80;;
18322;SDS011;9287;49.456;11.064;2023-02-02T08:20:19;0.83;;;0.73;;
18322;SDS011;9287;49.456;11.064;2023-02-02T08:22:47;0.93;;;0.70;;
18322;SDS011;9287;49.456;11.064;2023-02-02T08:25:15;0.70;;;0.60;;
18322;SDS011;9287;49.456;11.064;2023-02-02T08:27:44;0.50;;;0.50;;
18322;SDS011;9287;49.456;11.064;2023-02-02T08:30:12;0.70;;;0.70;;
18322;SDS011;9287;49.456;11.064;2023-02-02T08:32:40;3.67;;;0.80;;
18322;SDS011;9287;49.456;11.064;2023-02-02T08:35:07;1.10;;;1.00;;
18322;SDS011;9287;49.456;11.064;2023-02-02T08:37:35;1.83;;;0.60;;
18322;SDS011;9287;49.456;11.064;2023-02-02T08:40:03;0.87;;;0.80;;
18322;SDS011;9287;49.456;11.064;2023-02-02T08:42:32;1.63;;;0.80;;
18322;SDS011;9287;49.456;11.064;2023-02-02T08:45:01;0.97;;;0.80;;
18322;SDS011;9287;49.456;11.064;2023-02-02T08:47:50;2.43;;;1.20;;
18322;SDS011;9287;49.456;11.064;2023-02-02T08:50:36;1.37;;;0.90;;
18322;SDS011;9287;49.456;11.064;2023-02-02T08:53:03;1.70;;;0.90;;
18322;SDS011;9287;49.456;11.064;2023-02-02T08:55:31;1.40;;;0.90;;
18322;SDS011;9287;49.456;11.064;2023-02-02T08:57:59;1.10;;;0.77;;
18322;SDS011;9287;49.456;11.064;2023-02-02T09:00:28;0.77;;;0.70;;
18322;SDS011;9287;49.456;11.064;2023-02-02T09:02:57;0.60;;;0.60;;
18322;SDS011;9287;49.456;11.064;2023-02-02T09:05:24;1.17;;;0.80;;
18322;SDS011;9287;49.456;11.064;2023-02-02T09:07:52;1.00;;;0.80;;
18322;SDS011;9287;49.456;11.064;2023-02-02T09:10:20;1.90;;;1.47;;
18322;SDS011;9287;49.456;11.064;2023-02-02T09:12:48;2.40;;;1.27;;
18322;SDS011;9287;49.456;11.064;2023-02-02T09:15:15;2.77;;;1.10;;
18322;SDS011;9287;49.456;11.064;2023-02-02T09:17:45;2.40;;;1.47;;
18322;SDS011;9287;49.456;11.064;2023-02-02T09:20:12;1.10;;;1.00;;
18322;SDS011;9287;49.456;11.064;2023-02-02T09:22:40;1.10;;;1.00;;
18322;SDS011;9287;49.456;11.064;2023-02-02T09:25:08;1.10;;;1.10;;
18322;SDS011;9287;49.456;11.064;2023-02-02T09:27:35;1.30;;;1.07;;
18322;SDS011;9287;49.456;11.064;2023-02-02T09:30:04;4.97;;;1.20;;
18322;SDS011;9287;49.456;11.064;2023-02-02T09:32:33;1.10;;;1.00;;
18322;SDS011;9287;49.456;11.064;2023-02-02T09:35:02;1.83;;;0.93;;
18322;SDS011;9287;49.456;11.064;2023-02-02T09:37:32;1.00;;;0.90;;
18322;SDS011;9287;49.456;11.064;2023-02-02T09:40:00;2.00;;;0.80;;
18322;SDS011;9287;49.456;11.064;2023-02-02T09:42:33;1.10;;;1.00;;
18322;SDS011;9287;49.456;11.064;2023-02-02T09:45:14;1.93;;;1.10;;
18322;SDS011;9287;49.456;11.064;2023-02-02T09:47:51;2.20;;;1.30;;
18322;SDS011;9287;49.456;11.064;2023-02-02T09:50:26;1.80;;;1.33;;
18322;SDS011;9287;49.456;11.064;2023-02-02T09:53:10;2.43;;;1.30;;
18322;SDS011;9287;49.456;11.064;2023-02-02T09:55:44;3.17;;;1.10;;
18322;SDS011;9287;49.456;11.064;2023-02-02T09:58:15;1.93;;;1.40;;
18322;SDS011;9287;49.456;11.064;2023-02-02T10:00:47;2.37;;;1.57;;
18322;SDS011;9287;49.456;11.064;2023-02-02T10:03:23;1.37;;;1.27;;
18322;SDS011;9287;49.456;11.064;2023-02-02T10:06:01;2.47;;;1.53;;
18322;SDS011;9287;49.456;11.064;2023-02-02T10:08:34;1.53;;;1.30;;
18322;SDS011;9287;49.456;11.064;2023-02-02T10:11:12;2.50;;;1.77;;
18322;SDS011;9287;49.456;11.064;2023-02-02T10:13:50;5.10;;;1.90;;
18322;SDS011;9287;49.456;11.064;2023-02-02T10:16:23;2.93;;;1.60;;
18322;SDS011;9287;49.456;11.064;2023-02-02T10:18:52;2.23;;;1.90;;
18322;SDS011;9287;49.456;11.064;2023-02-02T10:21:28;2.43;;;1.80;;
18322;SDS011;9287;49.456;11.064;2023-02-02T10:24:02;2.77;;;1.77;;
18322;SDS011;9287;49.456;11.064;2023-02-02T10:26:34;3.20;;;1.80;;
18322;SDS011;9287;49.456;11.064;2023-02-02T10:29:07;3.33;;;1.90;;
18322;SDS011;9287;49.456;11.064;2023-02-02T10:31:42;2.70;;;2.10;;
18322;SDS011;9287;49.456;11.064;2023-02-02T10:34:16;3.27;;;2.27;;
18322;SDS011;9287;49.456;11.064;2023-02-02T10:36:52;3.87;;;2.13;;
18322;SDS011;9287;49.456;11.064;2023-02-02T10:39:32;5.87;;;2.80;;
18322;SDS011;9287;49.456;11.064;2023-02-02T10:42:11;6.87;;;2.50;;
18322;SDS011;9287;49.456;11.064;2023-02-02T10:44:46;5.50;;;2.27;;
18322;SDS011;9287;49.456;11.064;2023-02-02T10:47:19;6.47;;;2.27;;
18322;SDS011;9287;49.456;11.064;2023-02-02T10:49:53;13.57;;;2.97;;
18322;SDS011;9287;49.456;11.064;2023-02-02T10:52:30;4.93;;;2.37;;
18322;SDS011;9287;49.456;11.064;2023-02-02T10:55:00;8.97;;;2.23;;
18322;SDS011;9287;49.456;11.064;2023-02-02T10:57:34;7.17;;;2.93;;
18322;SDS011;9287;49.456;11.064;2023-02-02T11:00:15;5.37;;;2.43;;
18322;SDS011;9287;49.456;11.064;2023-02-02T11:02:49;7.07;;;2.47;;
18322;SDS011;9287;49.456;11.064;2023-02-02T11:05:21;7.70;;;2.70;;
18322;SDS011;9287;49.456;11.064;2023-02-02T11:08:11;9.43;;;2.37;;
18322;SDS011;9287;49.456;11.064;2023-02-02T11:10:41;4.80;;;2.03;;
18322;SDS011;9287;49.456;11.064;2023-02-02T11:13:11;5.87;;;2.77;;
18322;SDS011;9287;49.456;11.064;2023-02-02T11:15:43;6.33;;;2.00;;
18322;SDS011;9287;49.456;11.064;2023-02-02T11:18:12;7.50;;;1.97;;
18322;SDS011;9287;49.456;11.064;2023-02-02T11:20:41;11.03;;;2.30;;
18322;SDS011;9287;49.456;11.064;2023-02-02T11:23:16;6.60;;;1.77;;
18322;SDS011;9287;49.456;11.064;2023-02-02T11:25:45;5.03;;;1.60;;
18322;SDS011;9287;49.456;11.064;2023-02-02T11:28:24;5.30;;;1.50;;
18322;SDS011;9287;49.456;11.064;2023-02-02T11:30:56;8.00;;;2.53;;
18322;SDS011;9287;49.456;11.064;2023-02-02T11:33:26;4.40;;;1.77;;
18322;SDS011;9287;49.456;11.064;2023-02-02T11:35:56;6.27;;;1.90;;
18322;SDS011;9287;49.456;11.064;2023-02-02T11:38:26;6.97;;;1.77;;
18322;SDS011;9287;49.456;11.064;2023-02-02T11:40:55;6.37;;;1.70;;
18322;SDS011;9287;49.456;11.064;2023-02-02T11:43:27;7.80;;;1.70;;
18322;SDS011;9287;49.456;11.064;2023-02-02T11:45:59;8.20;;;1.83;;
18322;SDS011;9287;49.456;11.064;2023-02-02T11:48:31;5.23;;;2.30;;
18322;SDS011;9287;49.456;11.064;2023-02-02T11:51:01;6.07;;;1.90;;
18322;SDS011;9287;49.456;11.064;2023-02-02T11:53:32;8.17;;;2.27;;
18322;SDS011;9287;49.456;11.064;2023-02-02T11:56:03;6.17;;;1.77;;
18322;SDS011;9287;49.456;11.064;2023-02-02T11:58:42;8.00;;;1.70;;
18322;SDS011;9287;49.456;11.064;2023-02-02T12:01:22;6.97;;;2.30;;
18322;SDS011;9287;49.456;11.064;2023-02-02T12:03:52;8.80;;;1.77;;
18322;SDS011;9287;49.456;11.064;2023-02-02T12:06:22;7.93;;;1.90;;
18322;SDS011;9287;49.456;11.064;2023-02-02T12:08:54;6.27;;;2.00;;
18322;SDS011;9287;49.456;11.064;2023-02-02T12:11:27;7.53;;;1.80;;
18322;SDS011;9287;49.456;11.064;2023-02-02T12:14:10;7.33;;;2.00;;
18322;SDS011;9287;49.456;11.064;2023-02-02T12:16:53;7.60;;;1.87;;
18322;SDS011;9287;49.456;11.064;2023-02-02T12:19:32;5.80;;;1.60;;
18322;SDS011;9287;49.456;11.064;2023-02-02T12:22:16;6.37;;;1.83;;
18322;SDS011;9287;49.456;11.064;2023-02-02T12:24:55;3.33;;;1.63;;
18322;SDS011;9287;49.456;11.064;2023-02-02T12:27:30;6.20;;;1.73;;
18322;SDS011;9287;49.456;11.064;2023-02-02T12:30:09;6.27;;;1.83;;
18322;SDS011;9287;49.456;11.064;2023-02-02T12:32:53;5.53;;;1.30;;
18322;SDS011;9287;49.456;11.064;2023-02-02T12:35:41;5.37;;;1.30;;
18322;SDS011;9287;49.456;11.064;2023-02-02T12:38:18;5.13;;;1.60;;
18322;SDS011;9287;49.456;11.064;2023-02-02T12:41:01;5.90;;;1.93;;
18322;SDS011;9287;49.456;11.064;2023-02-02T12:43:41;6.33;;;1.93;;
18322;SDS011;9287;49.456;11.064;2023-02-02T12:46:15;4.17;;;1.63;;
18322;SDS011;9287;49.456;11.064;2023-02-02T12:48:56;5.57;;;1.50;;
18322;SDS011;9287;49.456;11.064;2023-02-02T12:51:40;7.07;;;1.67;;
18322;SDS011;9287;49.456;11.064;2023-02-02T12:54:35;7.73;;;2.33;;
18322;SDS011;9287;49.456;11.064;2023-02-02T12:57:31;8.77;;;2.97;;
18322;SDS011;9287;49.456;11.064;2023-02-02T13:00:17;5.77;;;1.53;;
18322;SDS011;9287;49.456;11.064;2023-02-02T13:03:21;5.70;;;1.80;;
18322;SDS011;9287;49.456;11.064;2023-02-02T13:06:06;4.13;;;1.80;;
18322;SDS011;9287;49.456;11.064;2023-02-02T13:09:00;6.17;;;1.40;;
18322;SDS011;9287;49.456;11.064;2023-02-02T13:11:34;6.20;;;1.50;;
18322;SDS011;9287;49.456;11.064;2023-02-02T13:14:10;4.10;;;1.70;;
18322;SDS011;9287;49.456;11.064;2023-02-02T13:16:42;6.00;;;1.60;;
18322;SDS011;9287;49.456;11.064;2023-02-02T13:19:14;8.63;;;1.83;;
18322;SDS011;9287;49.456;11.064;2023-02-02T13:21:52;6.73;;;1.60;;
18322;SDS011;9287;49.456;11.064;2023-02-02T13:24:25;2.73;;;1.07;;
18322;SDS011;9287;49.456;11.064;2023-02-02T13:26:56;5.63;;;1.13;;
18322;SDS011;9287;49.456;11.064;2023-02-02T13:29:30;8.57;;;1.90;;
18322;SDS011;9287;49.456;11.064;2023-02-02T13:32:14;3.30;;;1.30;;
18322;SDS011;9287;49.456;11.064;2023-02-02T13:34:48;4.67;;;1.20;;
18322;SDS011;9287;49.456;11.064;2023-02-02T13:37:21;5.10;;;1.23;;
18322;SDS011;9287;49.456;11.064;2023-02-02T13:39:55;6.50;;;1.20;;
18322;SDS011;9287;49.456;11.064;2023-02-02T13:42:33;5.63;;;1.30;;
18322;SDS011;9287;49.456;11.064;2023-02-02T13:45:15;4.07;;;1.60;;
18322;SDS011;9287;49.456;11.064;2023-02-02T13:48:01;3.43;;;1.13;;
18322;SDS011;9287;49.456;11.064;2023-02-02T13:50:39;9.37;;;1.77;;
18322;SDS011;9287;49.456;11.064;2023-02-02T13:53:19;6.13;;;1.70;;
18322;SDS011;9287;49.456;11.064;2023-02-02T13:56:04;5.03;;;1.30;;
18322;SDS011;9287;49.456;11.064;2023-02-02T13:58:51;6.10;;;1.80;;
18322;SDS011;9287;49.456;11.064;2023-02-02T14:01:35;6.30;;;1.33;;
18322;SDS011;9287;49.456;11.064;2023-02-02T14:04:15;4.50;;;0.93;;
18322;SDS011;9287;49.456;11.064;2023-02-02T14:06:51;3.07;;;1.20;;
18322;SDS011;9287;49.456;11.064;2023-02-02T14:09:23;3.80;;;1.23;;
18322;SDS011;9287;49.456;11.064;2023-02-02T14:11:55;6.33;;;1.37;;
18322;SDS011;9287;49.456;11.064;2023-02-02T14:14:27;5.07;;;1.40;;
18322;SDS011;9287;49.456;11.064;2023-02-02T14:17:04;4.97;;;1.33;;
18322;SDS011;9287;49.456;11.064;2023-02-02T14:19:45;4.90;;;1.70;;
18322;SDS011;9287;49.456;11.064;2023-02-02T14:22:23;2.83;;;1.33;;
18322;SDS011;9287;49.456;11.064;2023-02-02T14:28:08;7.70;;;1.50;;
18322;SDS011;9287;49.456;11.064;2023-02-02T14:30:37;3.90;;;1.60;;
18322;SDS011;9287;49.456;11.064;2023-02-02T14:33:23;5.53;;;1.53;;
18322;SDS011;9287;49.456;11.064;2023-02-02T14:35:59;2.33;;;1.17;;
18322;SDS011;9287;49.456;11.064;2023-02-02T14:38:32;4.57;;;1.03;;
18322;SDS011;9287;49.456;11.064;2023-02-02T14:41:19;3.60;;;1.20;;
18322;SDS011;9287;49.456;11.064;2023-02-02T14:44:12;5.00;;;1.20;;
18322;SDS011;9287;49.456;11.064;2023-02-02T14:46:40;4.63;;;1.70;;
18322;SDS011;9287;49.456;11.064;2023-02-02T14:49:18;4.17;;;1.47;;
18322;SDS011;9287;49.456;11.064;2023-02-02T14:51:55;3.37;;;1.60;;
18322;SDS011;9287;49.456;11.064;2023-02-02T14:54:28;5.73;;;1.57;;
18322;SDS011;9287;49.456;11.064;2023-02-02T14:56:59;1.70;;;1.60;;
18322;SDS011;9287;49.456;11.064;2023-02-02T14:59:30;4.30;;;1.37;;
18322;SDS011;9287;49.456;11.064;2023-02-02T15:02:05;2.97;;;1.30;;
18322;SDS011;9287;49.456;11.064;2023-02-02T15:04:41;1.37;;;1.00;;
18322;SDS011;9287;49.456;11.064;2023-02-02T15:14:02;1.70;;;1.20;;
18322;SDS011;9287;49.456;11.064;2023-02-02T15:16:39;1.27;;;1.10;;
18322;SDS011;9287;49.456;11.064;2023-02-02T15:19:13;1.57;;;0.90;;
18322;SDS011;9287;49.456;11.064;2023-02-02T15:21:50;2.50;;;1.00;;
18322;SDS011;9287;49.456;11.064;2023-02-02T15:24:24;1.10;;;1.00;;
18322;SDS011;9287;49.456;11.064;2023-02-02T15:26:54;1.03;;;0.80;;
18322;SDS011;9287;49.456;11.064;2023-02-02T15:29:29;0.83;;;0.80;;
18322;SDS011;9287;49.456;11.064;2023-02-02T15:32:04;0.80;;;0.80;;
18322;SDS011;9287;49.456;11.064;2023-02-02T15:34:36;0.97;;;0.90;;
18322;SDS011;9287;49.456;11.064;2023-02-02T15:37:09;1.63;;;1.07;;